sensor_id;sensor_type;location;lat;lon;timestamp;P1;durP1;ratioP1;P2;durP2;ratioP2
19671;SDS011;9983;51.114;13.788;2023-10-19T00:03:29;6.78;;;4.90;;
19671;SDS011;9983;51.114;13.788;2023-10-19T00:08:29;6.15;;;4.07;;
19671;SDS011;9983;51.114;13.788;2023-10-19T00:13:40;5.63;;;4.07;;
19671;SDS011;9983;51.114;13.788;2023-10-19T00:18:44;5.93;;;4.22;;
19671;SDS011;9983;51.114;13.788;2023-10-19T00:23:44;6.90;;;4.32;;
19671;SDS011;9983;51.114;13.788;2023-10-19T00:28:47;5.45;;;4.22;;
19671;SDS011;9983;51.114;13.788;2023-10-19T00:33:52;4.40;;;3.97;;
19671;SDS011;9983;51.114;13.788;2023-10-19T00:38:54;6.35;;;3.92;;
19671;SDS011;9983;51.114;13.788;2023-10-19T00:44:00;4.70;;;3.75;;
19671;SDS011;9983;51.114;13.788;2023-10-19T00:49:10;6.72;;;4.30;;
19671;SDS011;9983;51.114;13.788;2023-10-19T00:54:15;8.43;;;4.43;;
19671;SDS011;9983;51.114;13.788;2023-10-19T00:59:26;4.65;;;4.15;;
19671;SDS011;9983;51.114;13.788;2023-10-19T01:04:35;6.85;;;4.45;;
19671;SDS011;9983;51.114;13.788;2023-10-19T01:09:35;6.13;;;4.63;;
19671;SDS011;9983;51.114;13.788;2023-10-19T01:14:36;5.38;;;4.60;;
19671;SDS011;9983;51.114;13.788;2023-10-19T01:19:37;6.43;;;4.13;;
19671;SDS011;9983;51.114;13.788;2023-10-19T01:24:37;8.93;;;4.75;;
19671;SDS011;9983;51.114;13.788;2023-10-19T01:29:41;6.68;;;5.00;;
19671;SDS011;9983;51.114;13.788;2023-10-19T01:34:42;5.15;;;4.53;;
19671;SDS011;9983;51.114;13.788;2023-10-19T01:39:43;6.88;;;5.05;;
19671;SDS011;9983;51.114;13.788;2023-10-19T01:44:45;6.88;;;5.05;;
19671;SDS011;9983;51.114;13.788;2023-10-19T01:49:45;7.45;;;4.70;;
19671;SDS011;9983;51.114;13.788;2023-10-19T01:54:52;6.57;;;5.53;;
19671;SDS011;9983;51.114;13.788;2023-10-19T01:59:58;7.93;;;5.13;;
19671;SDS011;9983;51.114;13.788;2023-10-19T02:04:59;6.07;;;5.28;;
19671;SDS011;9983;51.114;13.788;2023-10-19T02:09:59;6.88;;;4.95;;
19671;SDS011;9983;51.114;13.788;2023-10-19T02:15:00;7.28;;;5.72;;
19671;SDS011;9983;51.114;13.788;2023-10-19T02:20:00;6.90;;;5.15;;
19671;SDS011;9983;51.114;13.788;2023-10-19T02:25:00;7.53;;;5.72;;
19671;SDS011;9983;51.114;13.788;2023-10-19T02:30:01;6.20;;;5.60;;
19671;SDS011;9983;51.114;13.788;2023-10-19T02:35:02;8.70;;;6.13;;
19671;SDS011;9983;51.114;13.788;2023-10-19T02:40:03;6.05;;;5.32;;
19671;SDS011;9983;51.114;13.788;2023-10-19T02:45:12;8.13;;;5.85;;
19671;SDS011;9983;51.114;13.788;2023-10-19T02:50:12;7.10;;;5.53;;
19671;SDS011;9983;51.114;13.788;2023-10-19T02:55:16;6.47;;;5.43;;
19671;SDS011;9983;51.114;13.788;2023-10-19T03:00:16;6.97;;;5.72;;
19671;SDS011;9983;51.114;13.788;2023-10-19T03:05:20;9.40;;;5.60;;
19671;SDS011;9983;51.114;13.788;2023-10-19T03:10:20;8.15;;;5.47;;
19671;SDS011;9983;51.114;13.788;2023-10-19T03:15:24;6.90;;;5.57;;
19671;SDS011;9983;51.114;13.788;2023-10-19T03:20:24;10.95;;;6.72;;
19671;SDS011;9983;51.114;13.788;2023-10-19T03:25:27;6.97;;;6.22;;
19671;SDS011;9983;51.114;13.788;2023-10-19T03:30:46;7.53;;;5.90;;
19671;SDS011;9983;51.114;13.788;2023-10-19T03:35:47;8.57;;;6.07;;
19671;SDS011;9983;51.114;13.788;2023-10-19T03:40:47;9.47;;;6.63;;
19671;SDS011;9983;51.114;13.788;2023-10-19T03:45:52;9.05;;;7.05;;
19671;SDS011;9983;51.114;13.788;2023-10-19T03:50:55;10.55;;;6.50;;
19671;SDS011;9983;51.114;13.788;2023-10-19T03:55:56;11.30;;;7.30;;
19671;SDS011;9983;51.114;13.788;2023-10-19T04:00:57;8.80;;;7.90;;
19671;SDS011;9983;51.114;13.788;2023-10-19T04:06:01;8.90;;;7.70;;
19671;SDS011;9983;51.114;13.788;2023-10-19T04:11:03;10.20;;;8.15;;
19671;SDS011;9983;51.114;13.788;2023-10-19T04:16:22;11.48;;;8.52;;
19671;SDS011;9983;51.114;13.788;2023-10-19T04:21:22;12.25;;;9.20;;
19671;SDS011;9983;51.114;13.788;2023-10-19T04:26:23;13.57;;;9.18;;
19671;SDS011;9983;51.114;13.788;2023-10-19T04:31:24;11.70;;;9.75;;
19671;SDS011;9983;51.114;13.788;2023-10-19T04:36:24;11.30;;;9.25;;
19671;SDS011;9983;51.114;13.788;2023-10-19T04:41:25;12.00;;;10.18;;
19671;SDS011;9983;51.114;13.788;2023-10-19T04:46:28;14.20;;;10.57;;
19671;SDS011;9983;51.114;13.788;2023-10-19T04:51:29;17.60;;;11.68;;
19671;SDS011;9983;51.114;13.788;2023-10-19T04:56:30;14.93;;;11.80;;
19671;SDS011;9983;51.114;13.788;2023-10-19T05:01:30;19.13;;;12.02;;
19671;SDS011;9983;51.114;13.788;2023-10-19T05:06:33;17.02;;;12.00;;
19671;SDS011;9983;51.114;13.788;2023-10-19T05:11:34;16.90;;;12.48;;
19671;SDS011;9983;51.114;13.788;2023-10-19T05:16:34;20.98;;;13.85;;
19671;SDS011;9983;51.114;13.788;2023-10-19T05:21:34;19.33;;;12.73;;
19671;SDS011;9983;51.114;13.788;2023-10-19T05:26:34;17.33;;;13.55;;
19671;SDS011;9983;51.114;13.788;2023-10-19T05:31:35;19.33;;;14.30;;
19671;SDS011;9983;51.114;13.788;2023-10-19T05:36:35;16.63;;;13.38;;
19671;SDS011;9983;51.114;13.788;2023-10-19T05:41:35;16.55;;;13.10;;
19671;SDS011;9983;51.114;13.788;2023-10-19T05:46:35;18.17;;;14.10;;
19671;SDS011;9983;51.114;13.788;2023-10-19T05:51:36;18.98;;;13.90;;
19671;SDS011;9983;51.114;13.788;2023-10-19T05:56:36;21.75;;;15.05;;
19671;SDS011;9983;51.114;13.788;2023-10-19T06:01:36;18.42;;;14.95;;
19671;SDS011;9983;51.114;13.788;2023-10-19T06:06:37;20.25;;;15.38;;
19671;SDS011;9983;51.114;13.788;2023-10-19T06:11:37;19.08;;;15.63;;
19671;SDS011;9983;51.114;13.788;2023-10-19T06:16:42;21.45;;;16.58;;
19671;SDS011;9983;51.114;13.788;2023-10-19T06:21:42;20.30;;;16.52;;
19671;SDS011;9983;51.114;13.788;2023-10-19T06:26:42;19.08;;;14.75;;
19671;SDS011;9983;51.114;13.788;2023-10-19T06:31:43;20.02;;;16.40;;
19671;SDS011;9983;51.114;13.788;2023-10-19T06:36:43;20.98;;;15.95;;
19671;SDS011;9983;51.114;13.788;2023-10-19T06:41:43;21.40;;;16.30;;
19671;SDS011;9983;51.114;13.788;2023-10-19T06:46:44;21.35;;;17.08;;
19671;SDS011;9983;51.114;13.788;2023-10-19T06:51:44;22.90;;;16.67;;
19671;SDS011;9983;51.114;13.788;2023-10-19T06:56:45;22.65;;;17.02;;
19671;SDS011;9983;51.114;13.788;2023-10-19T07:01:45;23.98;;;17.70;;
19671;SDS011;9983;51.114;13.788;2023-10-19T07:06:46;24.80;;;18.35;;
19671;SDS011;9983;51.114;13.788;2023-10-19T07:11:47;21.88;;;16.88;;
19671;SDS011;9983;51.114;13.788;2023-10-19T07:16:48;23.80;;;17.95;;
19671;SDS011;9983;51.114;13.788;2023-10-19T07:21:50;24.15;;;17.83;;
19671;SDS011;9983;51.114;13.788;2023-10-19T07:26:57;22.60;;;17.88;;
19671;SDS011;9983;51.114;13.788;2023-10-19T07:32:04;23.65;;;18.23;;
19671;SDS011;9983;51.114;13.788;2023-10-19T07:37:05;23.83;;;19.08;;
19671;SDS011;9983;51.114;13.788;2023-10-19T07:42:08;25.25;;;18.83;;
19671;SDS011;9983;51.114;13.788;2023-10-19T07:47:09;24.05;;;17.45;;
19671;SDS011;9983;51.114;13.788;2023-10-19T07:52:10;21.75;;;17.73;;
19671;SDS011;9983;51.114;13.788;2023-10-19T07:57:10;24.00;;;18.33;;
19671;SDS011;9983;51.114;13.788;2023-10-19T08:02:12;26.90;;;18.35;;
19671;SDS011;9983;51.114;13.788;2023-10-19T08:07:13;22.42;;;17.98;;
19671;SDS011;9983;51.114;13.788;2023-10-19T08:12:13;27.65;;;19.55;;
19671;SDS011;9983;51.114;13.788;2023-10-19T08:17:14;21.20;;;17.73;;
19671;SDS011;9983;51.114;13.788;2023-10-19T08:22:15;25.23;;;19.15;;
19671;SDS011;9983;51.114;13.788;2023-10-19T08:27:15;23.02;;;17.70;;
19671;SDS011;9983;51.114;13.788;2023-10-19T08:32:17;23.58;;;18.23;;
19671;SDS011;9983;51.114;13.788;2023-10-19T08:37:17;21.48;;;16.92;;
19671;SDS011;9983;51.114;13.788;2023-10-19T08:42:19;23.10;;;18.35;;
19671;SDS011;9983;51.114;13.788;2023-10-19T08:47:20;22.77;;;17.60;;
19671;SDS011;9983;51.114;13.788;2023-10-19T08:52:21;25.17;;;17.38;;
19671;SDS011;9983;51.114;13.788;2023-10-19T08:57:24;24.20;;;16.88;;
19671;SDS011;9983;51.114;13.788;2023-10-19T09:02:24;21.60;;;16.88;;
19671;SDS011;9983;51.114;13.788;2023-10-19T09:07:24;20.25;;;16.77;;
19671;SDS011;9983;51.114;13.788;2023-10-19T09:12:26;20.20;;;16.40;;
19671;SDS011;9983;51.114;13.788;2023-10-19T09:17:27;20.52;;;15.73;;
19671;SDS011;9983;51.114;13.788;2023-10-19T09:22:34;17.08;;;13.48;;
19671;SDS011;9983;51.114;13.788;2023-10-19T09:27:36;15.57;;;13.80;;
19671;SDS011;9983;51.114;13.788;2023-10-19T09:32:37;17.42;;;14.02;;
19671;SDS011;9983;51.114;13.788;2023-10-19T09:37:39;17.27;;;14.00;;
19671;SDS011;9983;51.114;13.788;2023-10-19T09:42:42;17.58;;;14.57;;
19671;SDS011;9983;51.114;13.788;2023-10-19T09:47:49;14.75;;;12.75;;
19671;SDS011;9983;51.114;13.788;2023-10-19T09:52:51;14.23;;;11.68;;
19671;SDS011;9983;51.114;13.788;2023-10-19T09:58:24;13.55;;;11.50;;
19671;SDS011;9983;51.114;13.788;2023-10-19T10:03:41;13.65;;;11.35;;
19671;SDS011;9983;51.114;13.788;2023-10-19T10:08:43;12.73;;;11.43;;
19671;SDS011;9983;51.114;13.788;2023-10-19T10:13:45;13.73;;;11.68;;
19671;SDS011;9983;51.114;13.788;2023-10-19T10:18:47;12.32;;;11.02;;
19671;SDS011;9983;51.114;13.788;2023-10-19T10:34:09;12.95;;;11.60;;
19671;SDS011;9983;51.114;13.788;2023-10-19T10:39:10;16.40;;;12.15;;
19671;SDS011;9983;51.114;13.788;2023-10-19T10:44:16;14.25;;;12.68;;
19671;SDS011;9983;51.114;13.788;2023-10-19T10:49:16;14.70;;;12.03;;
19671;SDS011;9983;51.114;13.788;2023-10-19T10:54:20;14.68;;;13.13;;
19671;SDS011;9983;51.114;13.788;2023-10-19T10:59:21;15.52;;;13.38;;
19671;SDS011;9983;51.114;13.788;2023-10-19T11:04:21;14.32;;;12.75;;
19671;SDS011;9983;51.114;13.788;2023-10-19T11:09:21;16.92;;;13.80;;
19671;SDS011;9983;51.114;13.788;2023-10-19T11:14:22;15.98;;;14.25;;
19671;SDS011;9983;51.114;13.788;2023-10-19T11:19:37;17.13;;;13.73;;
19671;SDS011;9983;51.114;13.788;2023-10-19T11:24:37;16.23;;;13.55;;
19671;SDS011;9983;51.114;13.788;2023-10-19T11:29:52;16.33;;;13.07;;
19671;SDS011;9983;51.114;13.788;2023-10-19T11:34:56;15.88;;;14.13;;
19671;SDS011;9983;51.114;13.788;2023-10-19T11:39:57;18.52;;;13.48;;
19671;SDS011;9983;51.114;13.788;2023-10-19T11:44:57;17.23;;;13.90;;
19671;SDS011;9983;51.114;13.788;2023-10-19T11:49:57;17.95;;;14.85;;
19671;SDS011;9983;51.114;13.788;2023-10-19T11:54:57;18.33;;;14.65;;
19671;SDS011;9983;51.114;13.788;2023-10-19T11:59:58;16.95;;;15.15;;
19671;SDS011;9983;51.114;13.788;2023-10-19T12:04:59;17.40;;;14.70;;
19671;SDS011;9983;51.114;13.788;2023-10-19T12:10:00;17.52;;;15.45;;
19671;SDS011;9983;51.114;13.788;2023-10-19T12:15:00;19.05;;;16.45;;
19671;SDS011;9983;51.114;13.788;2023-10-19T12:20:02;19.88;;;16.48;;
19671;SDS011;9983;51.114;13.788;2023-10-19T12:25:06;18.13;;;16.25;;
19671;SDS011;9983;51.114;13.788;2023-10-19T12:30:07;20.10;;;16.92;;
19671;SDS011;9983;51.114;13.788;2023-10-19T12:35:19;18.92;;;16.85;;
19671;SDS011;9983;51.114;13.788;2023-10-19T12:40:32;18.45;;;16.52;;
19671;SDS011;9983;51.114;13.788;2023-10-19T12:45:35;19.75;;;17.63;;
19671;SDS011;9983;51.114;13.788;2023-10-19T12:50:37;22.40;;;17.90;;
19671;SDS011;9983;51.114;13.788;2023-10-19T12:55:38;19.92;;;17.67;;
19671;SDS011;9983;51.114;13.788;2023-10-19T13:00:38;22.02;;;18.80;;
19671;SDS011;9983;51.114;13.788;2023-10-19T13:05:44;23.55;;;19.10;;
19671;SDS011;9983;51.114;13.788;2023-10-19T13:10:46;20.92;;;17.73;;
19671;SDS011;9983;51.114;13.788;2023-10-19T13:15:47;21.25;;;17.63;;
19671;SDS011;9983;51.114;13.788;2023-10-19T13:20:48;21.23;;;18.23;;
19671;SDS011;9983;51.114;13.788;2023-10-19T13:25:49;22.40;;;17.88;;
19671;SDS011;9983;51.114;13.788;2023-10-19T13:30:57;19.05;;;17.10;;
19671;SDS011;9983;51.114;13.788;2023-10-19T13:35:57;20.10;;;17.58;;
19671;SDS011;9983;51.114;13.788;2023-10-19T13:40:58;20.08;;;16.52;;
19671;SDS011;9983;51.114;13.788;2023-10-19T13:45:58;17.73;;;15.85;;
19671;SDS011;9983;51.114;13.788;2023-10-19T13:51:01;17.60;;;15.70;;
19671;SDS011;9983;51.114;13.788;2023-10-19T13:56:12;18.92;;;16.95;;
19671;SDS011;9983;51.114;13.788;2023-10-19T14:01:14;18.45;;;16.00;;
19671;SDS011;9983;51.114;13.788;2023-10-19T14:06:14;18.38;;;16.45;;
19671;SDS011;9983;51.114;13.788;2023-10-19T14:11:16;20.92;;;17.67;;
19671;SDS011;9983;51.114;13.788;2023-10-19T14:16:16;23.48;;;18.40;;
19671;SDS011;9983;51.114;13.788;2023-10-19T14:21:17;20.98;;;17.85;;
19671;SDS011;9983;51.114;13.788;2023-10-19T14:26:19;22.15;;;18.30;;
19671;SDS011;9983;51.114;13.788;2023-10-19T14:31:19;21.83;;;19.58;;
19671;SDS011;9983;51.114;13.788;2023-10-19T14:36:20;23.45;;;20.05;;
19671;SDS011;9983;51.114;13.788;2023-10-19T14:41:20;24.90;;;19.50;;
19671;SDS011;9983;51.114;13.788;2023-10-19T14:46:20;24.60;;;20.33;;
19671;SDS011;9983;51.114;13.788;2023-10-19T14:51:22;23.92;;;20.10;;
19671;SDS011;9983;51.114;13.788;2023-10-19T14:56:22;25.77;;;21.58;;
19671;SDS011;9983;51.114;13.788;2023-10-19T15:01:25;25.67;;;20.92;;
19671;SDS011;9983;51.114;13.788;2023-10-19T15:06:26;26.30;;;21.50;;
19671;SDS011;9983;51.114;13.788;2023-10-19T15:11:26;26.35;;;21.17;;
19671;SDS011;9983;51.114;13.788;2023-10-19T15:16:27;26.50;;;20.88;;
19671;SDS011;9983;51.114;13.788;2023-10-19T15:21:27;25.00;;;20.57;;
19671;SDS011;9983;51.114;13.788;2023-10-19T15:26:27;25.45;;;20.73;;
19671;SDS011;9983;51.114;13.788;2023-10-19T15:31:28;24.67;;;21.10;;
19671;SDS011;9983;51.114;13.788;2023-10-19T15:36:28;25.60;;;21.70;;
19671;SDS011;9983;51.114;13.788;2023-10-19T15:41:28;26.63;;;22.42;;
19671;SDS011;9983;51.114;13.788;2023-10-19T15:46:29;27.88;;;22.73;;
19671;SDS011;9983;51.114;13.788;2023-10-19T15:51:31;28.88;;;22.60;;
19671;SDS011;9983;51.114;13.788;2023-10-19T15:56:32;28.83;;;23.45;;
19671;SDS011;9983;51.114;13.788;2023-10-19T16:01:32;30.08;;;23.48;;
19671;SDS011;9983;51.114;13.788;2023-10-19T16:06:33;27.98;;;22.10;;
19671;SDS011;9983;51.114;13.788;2023-10-19T16:11:33;30.17;;;23.20;;
19671;SDS011;9983;51.114;13.788;2023-10-19T16:16:33;28.33;;;21.60;;
19671;SDS011;9983;51.114;13.788;2023-10-19T16:21:33;30.00;;;23.35;;
19671;SDS011;9983;51.114;13.788;2023-10-19T16:26:34;31.25;;;23.30;;
19671;SDS011;9983;51.114;13.788;2023-10-19T16:31:35;31.30;;;24.55;;
19671;SDS011;9983;51.114;13.788;2023-10-19T16:36:36;29.98;;;24.02;;
19671;SDS011;9983;51.114;13.788;2023-10-19T16:41:37;32.58;;;23.90;;
19671;SDS011;9983;51.114;13.788;2023-10-19T16:46:38;32.30;;;24.40;;
19671;SDS011;9983;51.114;13.788;2023-10-19T16:51:39;35.70;;;24.65;;
19671;SDS011;9983;51.114;13.788;2023-10-19T16:56:40;34.63;;;25.15;;
19671;SDS011;9983;51.114;13.788;2023-10-19T17:01:46;38.60;;;26.08;;
19671;SDS011;9983;51.114;13.788;2023-10-19T17:06:47;38.70;;;27.35;;
19671;SDS011;9983;51.114;13.788;2023-10-19T17:11:49;37.08;;;27.45;;
19671;SDS011;9983;51.114;13.788;2023-10-19T17:16:52;34.00;;;26.10;;
19671;SDS011;9983;51.114;13.788;2023-10-19T17:21:53;36.10;;;26.63;;
19671;SDS011;9983;51.114;13.788;2023-10-19T17:26:53;38.05;;;27.45;;
19671;SDS011;9983;51.114;13.788;2023-10-19T17:31:54;38.75;;;27.17;;
19671;SDS011;9983;51.114;13.788;2023-10-19T17:36:54;41.53;;;29.00;;
19671;SDS011;9983;51.114;13.788;2023-10-19T17:41:55;40.00;;;27.45;;
19671;SDS011;9983;51.114;13.788;2023-10-19T17:46:56;36.90;;;27.90;;
19671;SDS011;9983;51.114;13.788;2023-10-19T17:51:56;39.90;;;28.05;;
19671;SDS011;9983;51.114;13.788;2023-10-19T17:56:56;39.25;;;28.83;;
19671;SDS011;9983;51.114;13.788;2023-10-19T18:01:57;37.95;;;28.02;;
19671;SDS011;9983;51.114;13.788;2023-10-19T18:06:59;37.83;;;27.83;;
19671;SDS011;9983;51.114;13.788;2023-10-19T18:12:00;36.58;;;27.40;;
19671;SDS011;9983;51.114;13.788;2023-10-19T18:17:00;39.50;;;28.17;;
19671;SDS011;9983;51.114;13.788;2023-10-19T18:22:01;38.15;;;27.20;;
19671;SDS011;9983;51.114;13.788;2023-10-19T18:27:01;38.38;;;26.52;;
19671;SDS011;9983;51.114;13.788;2023-10-19T18:32:01;38.47;;;26.42;;
19671;SDS011;9983;51.114;13.788;2023-10-19T18:37:02;36.42;;;26.67;;
19671;SDS011;9983;51.114;13.788;2023-10-19T18:42:02;37.58;;;27.40;;
19671;SDS011;9983;51.114;13.788;2023-10-19T18:47:08;37.20;;;25.00;;
19671;SDS011;9983;51.114;13.788;2023-10-19T18:52:09;37.47;;;26.40;;
19671;SDS011;9983;51.114;13.788;2023-10-19T18:57:09;36.30;;;25.48;;
19671;SDS011;9983;51.114;13.788;2023-10-19T19:02:09;37.40;;;26.20;;
19671;SDS011;9983;51.114;13.788;2023-10-19T19:07:10;39.38;;;26.75;;
19671;SDS011;9983;51.114;13.788;2023-10-19T19:12:11;42.38;;;28.38;;
19671;SDS011;9983;51.114;13.788;2023-10-19T19:17:11;40.30;;;27.58;;
19671;SDS011;9983;51.114;13.788;2023-10-19T19:22:12;40.13;;;28.30;;
19671;SDS011;9983;51.114;13.788;2023-10-19T19:27:13;41.90;;;27.63;;
19671;SDS011;9983;51.114;13.788;2023-10-19T19:32:14;43.95;;;29.27;;
19671;SDS011;9983;51.114;13.788;2023-10-19T19:37:15;40.53;;;27.95;;
19671;SDS011;9983;51.114;13.788;2023-10-19T19:42:15;45.15;;;29.13;;
19671;SDS011;9983;51.114;13.788;2023-10-19T19:47:15;46.72;;;29.80;;
19671;SDS011;9983;51.114;13.788;2023-10-19T19:52:16;53.25;;;30.38;;
19671;SDS011;9983;51.114;13.788;2023-10-19T19:57:16;43.10;;;29.20;;
19671;SDS011;9983;51.114;13.788;2023-10-19T20:02:16;44.38;;;29.92;;
19671;SDS011;9983;51.114;13.788;2023-10-19T20:07:16;49.08;;;31.60;;
19671;SDS011;9983;51.114;13.788;2023-10-19T20:12:17;50.13;;;29.48;;
19671;SDS011;9983;51.114;13.788;2023-10-19T20:17:17;45.27;;;29.87;;
19671;SDS011;9983;51.114;13.788;2023-10-19T20:22:17;49.45;;;31.48;;
19671;SDS011;9983;51.114;13.788;2023-10-19T20:27:17;48.63;;;31.48;;
19671;SDS011;9983;51.114;13.788;2023-10-19T20:32:18;51.03;;;32.27;;
19671;SDS011;9983;51.114;13.788;2023-10-19T20:37:18;50.78;;;33.20;;
19671;SDS011;9983;51.114;13.788;2023-10-19T20:42:18;53.15;;;34.90;;
19671;SDS011;9983;51.114;13.788;2023-10-19T20:47:19;55.47;;;36.28;;
19671;SDS011;9983;51.114;13.788;2023-10-19T20:52:19;56.65;;;35.40;;
19671;SDS011;9983;51.114;13.788;2023-10-19T20:57:19;56.72;;;33.60;;
19671;SDS011;9983;51.114;13.788;2023-10-19T21:02:19;57.00;;;36.25;;
19671;SDS011;9983;51.114;13.788;2023-10-19T21:07:20;55.88;;;36.60;;
19671;SDS011;9983;51.114;13.788;2023-10-19T21:12:20;57.38;;;37.60;;
19671;SDS011;9983;51.114;13.788;2023-10-19T21:17:21;59.30;;;37.20;;
19671;SDS011;9983;51.114;13.788;2023-10-19T21:22:21;58.13;;;36.72;;
19671;SDS011;9983;51.114;13.788;2023-10-19T21:27:21;58.65;;;38.13;;
19671;SDS011;9983;51.114;13.788;2023-10-19T21:32:22;64.60;;;39.23;;
19671;SDS011;9983;51.114;13.788;2023-10-19T21:37:22;60.72;;;37.20;;
19671;SDS011;9983;51.114;13.788;2023-10-19T21:42:22;69.35;;;40.70;;
19671;SDS011;9983;51.114;13.788;2023-10-19T21:47:23;60.80;;;39.83;;
19671;SDS011;9983;51.114;13.788;2023-10-19T21:52:24;63.80;;;40.38;;
19671;SDS011;9983;51.114;13.788;2023-10-19T21:57:24;63.15;;;41.13;;
19671;SDS011;9983;51.114;13.788;2023-10-19T22:02:25;71.03;;;41.55;;
19671;SDS011;9983;51.114;13.788;2023-10-19T22:07:26;72.22;;;42.28;;
19671;SDS011;9983;51.114;13.788;2023-10-19T22:12:26;70.68;;;42.55;;
19671;SDS011;9983;51.114;13.788;2023-10-19T22:17:26;70.68;;;41.53;;
19671;SDS011;9983;51.114;13.788;2023-10-19T22:22:27;69.78;;;41.05;;
19671;SDS011;9983;51.114;13.788;2023-10-19T22:27:27;69.75;;;42.25;;
19671;SDS011;9983;51.114;13.788;2023-10-19T22:32:28;69.88;;;42.97;;
19671;SDS011;9983;51.114;13.788;2023-10-19T22:37:29;71.40;;;41.42;;
19671;SDS011;9983;51.114;13.788;2023-10-19T22:42:29;68.45;;;41.97;;
19671;SDS011;9983;51.114;13.788;2023-10-19T22:47:30;75.70;;;44.03;;
19671;SDS011;9983;51.114;13.788;2023-10-19T22:52:31;73.63;;;44.00;;
19671;SDS011;9983;51.114;13.788;2023-10-19T22:57:31;72.78;;;43.85;;
19671;SDS011;9983;51.114;13.788;2023-10-19T23:02:31;79.28;;;42.72;;
19671;SDS011;9983;51.114;13.788;2023-10-19T23:07:32;74.60;;;42.80;;
19671;SDS011;9983;51.114;13.788;2023-10-19T23:12:32;88.05;;;45.15;;
19671;SDS011;9983;51.114;13.788;2023-10-19T23:17:36;76.38;;;43.20;;
19671;SDS011;9983;51.114;13.788;2023-10-19T23:22:42;81.35;;;44.35;;
19671;SDS011;9983;51.114;13.788;2023-10-19T23:27:42;86.32;;;45.47;;
19671;SDS011;9983;51.114;13.788;2023-10-19T23:32:42;81.93;;;43.53;;
19671;SDS011;9983;51.114;13.788;2023-10-19T23:37:43;76.93;;;42.47;;
19671;SDS011;9983;51.114;13.788;2023-10-19T23:42:43;78.03;;;43.20;;
19671;SDS011;9983;51.114;13.788;2023-10-19T23:47:43;83.72;;;43.95;;
19671;SDS011;9983;51.114;13.788;2023-10-19T23:52:43;87.15;;;44.13;;
19671;SDS011;9983;51.114;13.788;2023-10-19T23:57:44;80.75;;;42.05;;
